Thunder radar more information blitzortung!


Radar de pluja more information rain snow radar


Visita la nostra xarxa de llocs de meteo:

Template documentation
and downloads

And another site



No particular awareness of the weather is required.    There are no Weather-warnings

Pagina Historial Weather Underground text

Diari Resum May 4, 2017 Unitats:  Imperial    Mètric   Tant
« Previous Dia
SegĂźent Dia »
Diari Setmana Mensual Anual Personalitzada
  Maxima: Minima: Media:
Temperatura: TemperatureC °F 10.8 °F 17.2 °F
Punt de rosada: DewpointC °F 9.2 °F 11.2 °F
Humitat: Humidity % 51 % 69 %
Wind Speed: WindSpeedKMH mph 0.0 mph 6 mph
RĂ fegues de vent: WindSpeedGustKMH mph - -
Vent:- - South
Pression baro: PressurehPa in 1011.7 in -
Precipitacions: 0.0 in    
Historical Graphs
 
 
Dades de taula per May 4, 2017
Temps Temperatura Punt de rosada Pression baro Vent Wind Speed RĂ fegues de vent Humitat Rainfall Rate (Hourly)
TemperatureC °F DewpointC °F PressurehPa in Calm     Humidity % HourlyPrecipMM in
00:00 11.0 °F 9.4 °F 1015.8 in Calm     90 % 0.0 in
00:02 12.2 °F 9.9 °F 1017.8 in NE 3.7 mph 3.7 mph 86 % 0.0 in
00:07 12.2 °F 9.9 °F 1017.8 in NNE 1.9 mph   86 % 0.0 in
00:10 11.0 °F 9.4 °F 1015.8 in Calm     90 % 0.0 in
00:25 11.0 °F 9.6 °F 1015.8 in Calm     91 % 0.0 in
00:35 11.0 °F 9.6 °F 1015.8 in Calm     91 % 0.0 in
00:45 10.9 °F 9.5 °F 1015.8 in Calm     91 % 0.0 in
00:55 10.8 °F 9.2 °F 1015.8 in SW 1.6 mph 3.2 mph 90 % 0.0 in
01:05 10.8 °F 9.4 °F 1015.8 in SW 1.6 mph 1.6 mph 91 % 0.0 in
01:15 10.8 °F 9.4 °F 1015.8 in Calm     91 % 0.0 in
01:25 10.8 °F 9.4 °F 1015.8 in Calm     91 % 0.0 in
01:35 10.8 °F 9.4 °F 1014.8 in Calm     91 % 0.0 in
01:45 10.8 °F 9.6 °F 1014.8 in Calm     92 % 0.0 in
01:55 10.8 °F 9.4 °F 1014.8 in Calm     91 % 0.0 in
02:05 10.8 °F 9.4 °F 1014.8 in WSW 1.6 mph 1.6 mph 91 % 0.0 in
02:15 10.8 °F 9.6 °F 1014.8 in Calm   1.6 mph 92 % 0.0 in
02:25 10.8 °F 9.6 °F 1014.8 in WSW 1.6 mph 3.2 mph 92 % 0.0 in
02:35 10.8 °F 9.6 °F 1014.8 in Calm   1.6 mph 92 % 0.0 in
02:45 10.9 °F 9.7 °F 1014.8 in WSW 1.6 mph 3.2 mph 92 % 0.0 in
02:55 11.0 °F 9.7 °F 1014.8 in WSW 3.2 mph 3.2 mph 92 % 0.0 in
03:05 10.9 °F 9.5 °F 1014.8 in WSW 1.6 mph 3.2 mph 91 % 0.0 in
03:15 10.9 °F 9.5 °F 1014.8 in WSW 3.2 mph 4.8 mph 91 % 0.0 in
03:25 10.9 °F 9.5 °F 1014.8 in SW 1.6 mph 3.2 mph 91 % 0.0 in
03:35 11.1 °F 9.7 °F 1014.8 in WSW 1.6 mph 3.2 mph 91 % 0.0 in
03:45 11.2 °F 9.9 °F 1014.8 in WSW 1.6 mph 3.2 mph 92 % 0.0 in
03:55 11.4 °F 10.3 °F 1014.8 in SW 1.6 mph 1.6 mph 93 % 0.0 in
04:05 11.5 °F 10.4 °F 1014.8 in SSE 1.6 mph 3.2 mph 93 % 0.0 in
04:15 12.1 °F 11.0 °F 1014.8 in SE 1.6 mph 1.6 mph 93 % 0.0 in
04:25 12.5 °F 11.4 °F 1014.8 in SW 1.6 mph 3.2 mph 93 % 0.0 in
04:35 12.6 °F 11.3 °F 1014.8 in SW 1.6 mph 3.2 mph 92 % 0.0 in
04:45 12.9 °F 11.4 °F 1014.8 in SW 3.2 mph 4.8 mph 91 % 0.0 in
04:55 12.9 °F 11.3 °F 1014.8 in SW 1.6 mph 3.2 mph 90 % 0.0 in
05:05 13.2 °F 11.4 °F 1013.8 in WSW 3.2 mph 3.2 mph 89 % 0.0 in
05:15 14.1 °F 12.3 °F 1013.8 in SW 1.6 mph 4.8 mph 89 % 0.0 in
05:25 14.6 °F 12.6 °F 1014.8 in SW 1.6 mph 3.2 mph 88 % 0.0 in
05:35 15.2 °F 12.7 °F 1014.8 in WSW 1.6 mph 6.4 mph 85 % 0.0 in
05:45 16.1 °F 13.2 °F 1014.8 in SSW 1.6 mph 6.4 mph 83 % 0.0 in
05:55 16.7 °F 13.6 °F 1013.8 in SSW 1.6 mph 4.8 mph 82 % 0.0 in
11:00 17.2 °F 13.7 °F 1013.8 in WSW 5.6 mph 5.6 mph 80 % 0.0 in
11:05 16.8 °F 13.3 °F 1013.8 in SSE 9.3 mph 9.3 mph 80 % 0.0 in
11:10 17.1 °F 13.2 °F 1013.8 in SW 11.1 mph 11.1 mph 78 % 0.0 in
11:15 17.4 °F 13.5 °F 1013.8 in SW 5.6 mph 5.6 mph 78 % 0.0 in
11:20 17.8 °F 13.7 °F 1013.8 in SSW 9.3 mph 9.3 mph 77 % 0.0 in
11:21 17.9 °F 13.8 °F 1013.8 in South 9.3 mph 9.3 mph 77 % 0.0 in
11:27 17.7 °F 13.3 °F 1013.8 in SW 7.4 mph 7.4 mph 76 % 0.0 in
11:32 18.1 °F 13.6 °F 1013.8 in South 6.4 mph 6.4 mph 75 % 0.0 in
11:37 18.0 °F 13.5 °F 1013.8 in WSW 7.4 mph 7.4 mph 75 % 0.0 in
11:42 18.0 °F 13.3 °F 1013.8 in SW 7.9 mph 7.9 mph 74 % 0.0 in
11:47 18.3 °F 13.6 °F 1013.8 in SSE 11.1 mph 11.1 mph 74 % 0.0 in
11:52 18.6 °F 13.7 °F 1013.8 in WSW 9.3 mph 9.3 mph 73 % 0.0 in
11:57 18.4 °F 13.3 °F 1013.8 in WSW 5.3 mph 5.3 mph 72 % 0.0 in
11:58 18.4 °F 13.4 °F 1013.8 in WNW 5.6 mph 5.6 mph 73 % 0.0 in
12:03 18.7 °F 13.6 °F 1013.8 in SW 3.7 mph 3.7 mph 72 % 0.0 in
12:08 18.9 °F 13.7 °F 1013.8 in SSE 5.6 mph 5.6 mph 72 % 0.0 in
12:13 19.2 °F 13.6 °F 1013.8 in WSW 3.7 mph 3.7 mph 70 % 0.0 in
12:18 19.2 °F 13.8 °F 1013.8 in WSW 6.4 mph 6.4 mph 71 % 0.0 in
12:23 19.1 °F 13.1 °F 1013.8 in SW 9.3 mph 9.3 mph 68 % 0.0 in
12:28 19.4 °F 13.3 °F 1013.8 in SE 5.6 mph 5.6 mph 68 % 0.0 in
12:33 19.5 °F 13.0 °F 1013.8 in SSE 5.6 mph 5.6 mph 66 % 0.0 in
12:38 20.2 °F 13.2 °F 1013.8 in WSW 7.4 mph 7.4 mph 64 % 0.0 in
12:43 20.4 °F 12.6 °F 1013.8 in WSW 7.4 mph 7.4 mph 61 % 0.0 in
12:48 20.6 °F 13.3 °F 1013.8 in WSW 9.3 mph 9.3 mph 63 % 0.0 in
12:53 20.9 °F 12.8 °F 1013.8 in SSE 2.3 mph 2.3 mph 60 % 0.0 in
12:58 20.9 °F 12.8 °F 1013.8 in SSE 9.3 mph 9.3 mph 60 % 0.0 in
13:03 21.0 °F 12.7 °F 1013.8 in WSW 11.1 mph 11.1 mph 59 % 0.0 in
13:08 20.8 °F 11.7 °F 1013.8 in South 9.3 mph 9.3 mph 56 % 0.0 in
13:13 21.6 °F 13.0 °F 1013.8 in SW 6.9 mph 6.9 mph 58 % 0.0 in
13:18 21.0 °F 11.6 °F 1013.8 in WSW 16.7 mph 16.7 mph 55 % 0.0 in
13:23 21.2 °F 11.8 °F 1013.8 in SW 18.5 mph 18.5 mph 55 % 0.0 in
13:28 21.6 °F 12.4 °F 1013.8 in SW 13.7 mph 13.7 mph 56 % 0.0 in
13:33 22.0 °F 12.6 °F 1013.8 in NW 7.6 mph 7.6 mph 55 % 0.0 in
13:38 21.4 °F 12.0 °F 1013.8 in SW 13.7 mph 13.7 mph 55 % 0.0 in
13:43 21.7 °F 12.0 °F 1012.8 in WSW 13.0 mph 13.0 mph 54 % 0.0 in
13:48 22.3 °F 12.6 °F 1012.8 in WSW 9.3 mph 9.3 mph 54 % 0.0 in
13:53 21.7 °F 11.7 °F 1012.8 in SSW 13.0 mph 13.0 mph 53 % 0.0 in
13:58 21.7 °F 11.7 °F 1013.8 in SSW 11.1 mph 11.1 mph 53 % 0.0 in
14:03 22.1 °F 12.1 °F 1013.8 in SSE 9.3 mph 9.3 mph 53 % 0.0 in
14:08 22.3 °F 12.3 °F 1013.8 in South 5.6 mph 5.6 mph 53 % 0.0 in
14:13 22.2 °F 11.9 °F 1012.8 in SSW 11.1 mph 11.1 mph 52 % 0.0 in
14:18 22.2 °F 12.2 °F 1012.8 in WSW 9.3 mph 9.3 mph 53 % 0.0 in
14:23 22.1 °F 12.1 °F 1012.8 in SSE 9.3 mph 9.3 mph 53 % 0.0 in
14:28 22.1 °F 12.1 °F 1012.8 in SSE 13.0 mph 13.0 mph 53 % 0.0 in
14:33 22.4 °F 12.1 °F 1012.8 in East 5.8 mph 5.8 mph 52 % 0.0 in
14:38 22.3 °F 12.3 °F 1012.8 in SSW 14.8 mph 14.8 mph 53 % 0.0 in
14:43 22.0 °F 12.0 °F 1012.8 in South 9.3 mph 9.3 mph 53 % 0.0 in
14:48 22.4 °F 12.1 °F 1012.8 in South 9.3 mph 9.3 mph 52 % 0.0 in
14:53 22.3 °F 11.9 °F 1012.8 in SW 11.1 mph 11.1 mph 52 % 0.0 in
14:58 22.4 °F 12.1 °F 1012.8 in WNW 9.3 mph 9.3 mph 52 % 0.0 in
15:03 22.7 °F 12.3 °F 1012.8 in South 7.4 mph 7.4 mph 52 % 0.0 in
15:04 22.7 °F 12.3 °F 1012.8 in South 7.6 mph 7.6 mph 52 % 0.0 in
15:09 22.5 °F 12.2 °F 1012.8 in SW 15.6 mph 15.6 mph 52 % 0.0 in
15:14 22.8 °F 12.4 °F 1012.8 in SW 6.4 mph 6.4 mph 52 % 0.0 in
15:19 22.7 °F 12.3 °F 1012.8 in SSW 14.8 mph 14.8 mph 52 % 0.0 in
15:24 22.3 °F 11.7 °F 1012.8 in West 7.4 mph 7.4 mph 51 % 0.0 in
15:29 22.1 °F 11.5 °F 1011.7 in SSW 14.8 mph 14.8 mph 51 % 0.0 in
15:34 22.5 °F 12.2 °F 1011.7 in SW 7.4 mph 7.4 mph 52 % 0.0 in
15:39 22.2 °F 11.6 °F 1011.7 in SW 9.3 mph 9.3 mph 51 % 0.0 in
15:44 22.2 °F 11.6 °F 1011.7 in South 9.3 mph 9.3 mph 51 % 0.0 in
15:49 22.4 °F 11.8 °F 1011.7 in WSW 16.4 mph 16.4 mph 51 % 0.0 in
15:54 21.2 °F 10.7 °F 1011.7 in South 13.0 mph 13.0 mph 51 % 0.0 in
15:59 21.7 °F 11.1 °F 1011.7 in SW 13.0 mph 13.0 mph 51 % 0.0 in
16:04 22.0 °F 11.7 °F 1011.7 in WSW 13.7 mph 13.7 mph 52 % 0.0 in
16:09 22.2 °F 11.9 °F 1011.7 in SSE 10.0 mph 10.0 mph 52 % 0.0 in
16:14 22.0 °F 11.7 °F 1011.7 in SW 11.1 mph 11.1 mph 52 % 0.0 in
16:19 22.4 °F 12.1 °F 1011.7 in WSW 7.4 mph 7.4 mph 52 % 0.0 in
16:24 22.3 °F 11.9 °F 1011.7 in WSW 7.4 mph 7.4 mph 52 % 0.0 in
16:29 22.0 °F 11.7 °F 1011.7 in WSW 13.7 mph 13.7 mph 52 % 0.0 in
16:34 21.8 °F 11.5 °F 1011.7 in SSW 14.8 mph 14.8 mph 52 % 0.0 in
16:39 22.0 °F 11.7 °F 1011.7 in SW 12.6 mph 12.6 mph 52 % 0.0 in
16:44 21.9 °F 11.6 °F 1011.7 in SSW 9.3 mph 9.3 mph 52 % 0.0 in
16:49 21.5 °F 10.9 °F 1011.7 in SSE 11.1 mph 11.1 mph 51 % 0.0 in
16:54 21.8 °F 11.5 °F 1011.7 in SW 13.0 mph 13.0 mph 52 % 0.0 in
16:59 21.5 °F 11.2 °F 1011.7 in West 13.0 mph 13.0 mph 52 % 0.0 in
17:04 21.7 °F 11.4 °F 1011.7 in NW 5.0 mph 5.0 mph 52 % 0.0 in
17:09 21.9 °F 11.6 °F 1011.7 in WSW 5.6 mph 5.6 mph 52 % 0.0 in
17:14 21.6 °F 11.3 °F 1011.7 in SSE 9.3 mph 9.3 mph 52 % 0.0 in
17:19 22.0 °F 12.0 °F 1011.7 in WSW 9.3 mph 9.3 mph 53 % 0.0 in
17:24 22.0 °F 11.7 °F 1011.7 in SSE 7.4 mph 7.4 mph 52 % 0.0 in
17:29 21.4 °F 11.1 °F 1012.8 in SW 7.4 mph 7.4 mph 52 % 0.0 in
17:34 21.7 °F 11.7 °F 1012.8 in SW 5.0 mph 5.0 mph 53 % 0.0 in
17:39 21.5 °F 11.2 °F 1012.8 in SSW 9.3 mph 9.3 mph 52 % 0.0 in
17:44 21.6 °F 11.3 °F 1011.7 in SSW 9.3 mph 9.3 mph 52 % 0.0 in
17:49 21.2 °F 10.9 °F 1011.7 in SSW 5.8 mph 5.8 mph 52 % 0.0 in
17:54 20.8 °F 11.2 °F 1011.7 in SSE 7.4 mph 7.4 mph 54 % 0.0 in
17:59 20.8 °F 11.2 °F 1011.7 in WSW 7.4 mph 7.4 mph 54 % 0.0 in
18:04 20.4 °F 10.8 °F 1011.7 in SSW 7.4 mph 7.4 mph 54 % 0.0 in
18:09 20.3 °F 10.7 °F 1011.7 in SW 9.3 mph 9.3 mph 54 % 0.0 in
18:14 20.2 °F 10.9 °F 1011.7 in WSW 9.3 mph 9.3 mph 55 % 0.0 in
18:19 20.2 °F 10.9 °F 1011.7 in SSW 3.7 mph 3.7 mph 55 % 0.0 in
18:24 20.4 °F 11.1 °F 1011.7 in South 3.7 mph 3.7 mph 55 % 0.0 in
18:29 20.1 °F 10.8 °F 1011.7 in SW 3.7 mph 3.7 mph 55 % 0.0 in
18:34 19.6 °F 10.6 °F 1011.7 in ESE 9.3 mph 9.3 mph 56 % 0.0 in
18:39 19.5 °F 10.8 °F 1011.7 in WSW 6.1 mph 6.1 mph 57 % 0.0 in
18:44 19.4 °F 10.9 °F 1011.7 in SSW 5.8 mph 5.8 mph 58 % 0.0 in
18:49 19.1 °F 10.7 °F 1011.7 in SW 9.3 mph 9.3 mph 58 % 0.0 in
18:54 18.9 °F 10.7 °F 1011.7 in WSW 5.6 mph 5.6 mph 59 % 0.0 in
18:59 18.6 °F 10.7 °F 1012.8 in SW 10.0 mph 10.0 mph 60 % 0.0 in
19:04 18.5 °F 10.8 °F 1012.8 in West 9.3 mph 9.3 mph 61 % 0.0 in
19:09 18.4 °F 11.0 °F 1012.8 in WSW 9.3 mph 9.3 mph 62 % 0.0 in
19:14 18.3 °F 10.9 °F 1012.8 in SSW 7.4 mph 7.4 mph 62 % 0.0 in
19:19 18.1 °F 10.9 °F 1012.8 in South 12.2 mph 12.2 mph 63 % 0.0 in
19:24 18.1 °F 10.9 °F 1012.8 in SW 5.6 mph 5.6 mph 63 % 0.0 in
19:25 14.4 °F 11.0 °F 1014.8 in NE 3.2 mph 6.4 mph 80 % 0.0 in
19:29 17.9 °F 10.8 °F 1012.8 in SW 9.3 mph 9.3 mph 63 % 0.0 in
19:34 17.8 °F 10.7 °F 1012.8 in WSW 7.4 mph 7.4 mph 63 % 0.0 in
19:35 14.4 °F 11.0 °F 1014.8 in NE 4.8 mph 6.4 mph 80 % 0.0 in
19:39 17.7 °F 10.8 °F 1012.8 in ESE 7.4 mph 7.4 mph 64 % 0.0 in
19:44 17.5 °F 10.6 °F 1013.8 in West 9.3 mph 9.3 mph 64 % 0.0 in
19:45 14.4 °F 11.0 °F 1014.8 in NE 3.2 mph 4.8 mph 80 % 0.0 in
19:49 17.5 °F 10.6 °F 1013.8 in WSW 4.2 mph 4.2 mph 64 % 0.0 in
19:54 17.3 °F 10.4 °F 1013.8 in SW 9.3 mph 9.3 mph 64 % 0.0 in
19:55 14.4 °F 11.0 °F 1014.8 in NE 1.6 mph 3.2 mph 80 % 0.0 in
19:59 17.2 °F 10.3 °F 1013.8 in WSW 5.6 mph 5.6 mph 64 % 0.0 in
20:04 17.1 °F 10.4 °F 1013.8 in SSW 9.3 mph 9.3 mph 65 % 0.0 in
20:05 14.3 °F 10.9 °F 1015.8 in Calm   3.2 mph 80 % 0.0 in
20:09 17.0 °F 10.4 °F 1013.8 in WSW 5.6 mph 5.6 mph 65 % 0.0 in
20:14 17.0 °F 10.4 °F 1012.8 in SW 5.6 mph 5.6 mph 65 % 0.0 in
20:15 14.3 °F 11.1 °F 1015.8 in ENE 1.6 mph 3.2 mph 81 % 0.0 in
20:19 16.8 °F 10.2 °F 1012.8 in WSW 5.6 mph 5.6 mph 65 % 0.0 in
20:20 16.8 °F 10.2 °F 1012.8 in SW 5.6 mph 5.6 mph 65 % 0.0 in
20:25 16.8 °F 10.2 °F 1012.8 in SSW 3.2 mph 3.2 mph 65 % 0.0 in
20:30 16.7 °F 10.1 °F 1013.8 in SSW 3.7 mph 3.7 mph 65 % 0.0 in
20:35 16.7 °F 10.1 °F 1013.8 in SW 3.7 mph 3.7 mph 65 % 0.0 in
20:40 16.6 °F 10.0 °F 1013.8 in WSW 3.9 mph 3.9 mph 65 % 0.0 in
20:45 16.5 °F 9.9 °F 1013.8 in WSW 1.9 mph 1.9 mph 65 % 0.0 in
20:50 16.5 °F 9.9 °F 1013.8 in WSW 1.9 mph   65 % 0.0 in
20:55 16.4 °F 9.8 °F 1013.8 in ENE 3.9 mph 3.9 mph 65 % 0.0 in
21:00 16.3 °F 9.7 °F 1013.8 in NE 4.2 mph 4.2 mph 65 % 0.0 in
21:05 16.2 °F 10.5 °F 1013.8 in NE 5.8 mph 5.8 mph 69 % 0.0 in
21:10 16.1 °F 10.8 °F 1013.8 in East 5.6 mph 5.6 mph 71 % 0.0 in
21:15 16.0 °F 10.7 °F 1013.8 in ESE 7.4 mph 7.4 mph 71 % 0.0 in
21:20 16.0 °F 11.2 °F 1013.8 in ENE 7.4 mph 7.4 mph 73 % 0.0 in
21:25 15.9 °F 11.1 °F 1013.8 in NE 7.4 mph 7.4 mph 73 % 0.0 in
21:30 15.9 °F 11.3 °F 1013.8 in ESE 5.6 mph 5.6 mph 74 % 0.0 in
21:35 14.0 °F 10.6 °F 1013.8 in NE 1.6 mph 6.4 mph 80 % 0.0 in
21:40 15.7 °F 11.1 °F 1013.8 in ESE 9.3 mph 9.3 mph 74 % 0.0 in
21:45 15.6 °F 11.0 °F 1013.8 in ENE 5.0 mph 5.0 mph 74 % 0.0 in
21:50 15.6 °F 11.2 °F 1013.8 in East 3.7 mph 3.7 mph 75 % 0.0 in
21:55 15.5 °F 11.1 °F 1013.8 in ESE 4.7 mph 4.7 mph 75 % 0.0 in
22:00 15.4 °F 11.0 °F 1014.8 in South 1.9 mph   75 % 0.0 in
22:05 15.4 °F 11.0 °F 1014.8 in SSE 1.9 mph 1.9 mph 75 % 0.0 in
22:10 15.3 °F 10.9 °F 1014.8 in ENE 4.2 mph 4.2 mph 75 % 0.0 in
22:11 15.3 °F 10.9 °F 1014.8 in ESE 5.6 mph 5.6 mph 75 % 0.0 in
22:15 13.5 °F 10.3 °F 1014.8 in Calm     81 % 0.0 in
22:16 15.3 °F 11.1 °F 1014.8 in East 3.9 mph 3.9 mph 76 % 0.0 in
22:21 15.3 °F 11.1 °F 1014.8 in East 3.7 mph 3.9 mph 76 % 0.0 in
22:25 13.4 °F 10.2 °F 1014.8 in NW 1.6 mph 3.2 mph 81 % 0.0 in
22:26 15.2 °F 11.0 °F 1014.8 in ESE 5.0 mph 5.0 mph 76 % 0.0 in
22:31 15.2 °F 11.2 °F 1014.8 in NE 5.6 mph 5.6 mph 77 % 0.0 in
22:35 13.3 °F 10.1 °F 1014.8 in NNE 3.2 mph 4.8 mph 81 % 0.0 in
22:36 15.2 °F 11.0 °F 1014.8 in East 5.6 mph 5.6 mph 76 % 0.0 in
22:41 15.1 °F 11.1 °F 1014.8 in NNE 7.4 mph 7.4 mph 77 % 0.0 in
22:45 13.1 °F 9.9 °F 1014.8 in NNE 4.8 mph 4.8 mph 81 % 0.0 in
22:46 15.1 °F 11.1 °F 1014.8 in ESE 5.6 mph 5.6 mph 77 % 0.0 in
22:51 15.1 °F 11.3 °F 1014.8 in East 5.6 mph 5.6 mph 78 % 0.0 in
22:55 12.9 °F 9.7 °F 1013.8 in Calm   3.2 mph 81 % 0.0 in
22:56 15.1 °F 11.3 °F 1014.8 in NNE 3.9 mph 3.9 mph 78 % 0.0 in
23:01 15.0 °F 11.2 °F 1015.8 in ESE 5.6 mph 5.6 mph 78 % 0.0 in
23:05 12.7 °F 9.7 °F 1013.8 in Calm   3.2 mph 82 % 0.0 in
23:06 15.0 °F 11.2 °F 1015.8 in ENE 5.3 mph 5.3 mph 78 % 0.0 in
23:11 15.0 °F 11.2 °F 1015.8 in ENE 3.7 mph 3.7 mph 78 % 0.0 in
23:15 12.6 °F 9.6 °F 1013.8 in Calm     82 % 0.0 in
23:16 14.9 °F 11.1 °F 1015.8 in NE 7.4 mph 7.4 mph 78 % 0.0 in
23:21 14.9 °F 11.3 °F 1015.8 in NNE 5.6 mph 5.6 mph 79 % 0.0 in
23:25 12.6 °F 9.6 °F 1013.8 in Calm     82 % 0.0 in
23:26 14.8 °F 11.2 °F 1015.8 in NE 3.7 mph 3.9 mph 79 % 0.0 in
23:31 14.7 °F 11.1 °F 1015.8 in ESE 3.5 mph   79 % 0.0 in
23:35 12.6 °F 9.8 °F 1013.8 in Calm     83 % 0.0 in
23:36 14.7 °F 11.1 °F 1015.8 in NE 3.7 mph 3.7 mph 79 % 0.0 in
23:41 14.6 °F 11.0 °F 1015.8 in ENE 3.7 mph 3.7 mph 79 % 0.0 in
23:45 12.5 °F 9.7 °F 1013.8 in Calm     83 % 0.0 in
23:46 14.6 °F 11.2 °F 1014.8 in East 2.6 mph 2.6 mph 80 % 0.0 in
23:51 14.5 °F 11.1 °F 1014.8 in ENE 3.7 mph 3.7 mph 80 % 0.0 in
23:55 12.6 °F 9.8 °F 1012.8 in Calm   3.2 mph 83 % 0.0 in
23:56 14.5 °F 11.1 °F 1014.8 in NE 3.7 mph 3.7 mph 80 % 0.0 in
Meteo Sesrovires
Elogis d' Weather Underground - 4 mb

Guio original per  Jim McMurry - jmcmurry@mwt.net Adaptat per a la plantilla per  Wim van der Kuil - Leuven-Template.eu

Trobareu la nostra informacio del temps tambe a:

Weather Underground

AWEKAS